OAL114 LGAV-LBSF
Flight info
| Callsign | OAL114 |
|---|---|
| Flight time | 0h 58m |
| Altitude | 35000 |
| Route | KRO UG33 KOROS DCT EVIVI DCT VANET |
| Aircraft | B738/M-VGDW/C |
Departure
| Time | 2026-05-06 08:17 |
|---|---|
| Airport | Athens Eleftherios Venizelos International Airport (LGAV) |
Arrival
| Time | 2026-05-06 09:15 |
|---|---|
| Airport | Sofia Airport (LBSF) |
| Time | Latitude | Longitude | Altitude | Speed | Heading |
|---|---|---|---|---|---|
| 2026-05-06 07:59 | 37.93834 | 23.95061 | 316 ft | 0 kts | 308° |
| 2026-05-06 08:07 | 37.93826 | 23.95074 | 316 ft | 2 kts | 308° |
| 2026-05-06 08:07 | 37.93815 | 23.95093 | 316 ft | 3 kts | 308° |
| 2026-05-06 08:07 | 37.93802 | 23.95113 | 316 ft | 3 kts | 308° |
| 2026-05-06 08:08 | 37.93796 | 23.95123 | 316 ft | 1 kts | 308° |
| 2026-05-06 08:08 | 37.93787 | 23.95138 | 316 ft | 3 kts | 307° |
| 2026-05-06 08:08 | 37.93779 | 23.95151 | 316 ft | 0 kts | 307° |
| 2026-05-06 08:08 | 37.93781 | 23.95144 | 316 ft | 2 kts | 274° |
| 2026-05-06 08:09 | 37.93777 | 23.95135 | 316 ft | 0 kts | 216° |
| 2026-05-06 08:09 | 37.93776 | 23.95135 | 316 ft | 0 kts | 216° |
| 2026-05-06 08:10 | 37.93776 | 23.95134 | 316 ft | 1 kts | 216° |
| 2026-05-06 08:11 | 37.93749 | 23.95114 | 316 ft | 7 kts | 200° |
| 2026-05-06 08:11 | 37.93697 | 23.95144 | 316 ft | 11 kts | 126° |
| 2026-05-06 08:11 | 37.93643 | 23.95226 | 316 ft | 13 kts | 152° |
| 2026-05-06 08:11 | 37.93556 | 23.95193 | 316 ft | 14 kts | 217° |
| 2026-05-06 08:12 | 37.93474 | 23.95114 | 316 ft | 15 kts | 217° |
| 2026-05-06 08:12 | 37.93388 | 23.95034 | 316 ft | 16 kts | 216° |
| 2026-05-06 08:12 | 37.93300 | 23.94950 | 316 ft | 16 kts | 217° |
| 2026-05-06 08:12 | 37.93208 | 23.94862 | 316 ft | 17 kts | 217° |
| 2026-05-06 08:13 | 37.93118 | 23.94776 | 316 ft | 16 kts | 217° |
| 2026-05-06 08:13 | 37.93033 | 23.94695 | 316 ft | 15 kts | 217° |
| 2026-05-06 08:13 | 37.92953 | 23.94619 | 316 ft | 14 kts | 217° |
| 2026-05-06 08:13 | 37.92879 | 23.94549 | 316 ft | 13 kts | 217° |
| 2026-05-06 08:14 | 37.92807 | 23.94481 | 316 ft | 13 kts | 217° |
| 2026-05-06 08:14 | 37.92740 | 23.94417 | 316 ft | 12 kts | 217° |
| 2026-05-06 08:14 | 37.92674 | 23.94354 | 316 ft | 12 kts | 217° |
| 2026-05-06 08:14 | 37.92609 | 23.94293 | 316 ft | 11 kts | 212° |
| 2026-05-06 08:15 | 37.92542 | 23.94314 | 316 ft | 11 kts | 126° |
| 2026-05-06 08:15 | 37.92498 | 23.94391 | 316 ft | 11 kts | 123° |
| 2026-05-06 08:15 | 37.92504 | 23.94469 | 316 ft | 7 kts | 45° |
| 2026-05-06 08:15 | 37.92540 | 23.94504 | 316 ft | 6 kts | 37° |
| 2026-05-06 08:16 | 37.92612 | 23.94574 | 316 ft | 24 kts | 37° |
| 2026-05-06 08:16 | 37.92918 | 23.94862 | 316 ft | 87 kts | 37° |
| 2026-05-06 08:16 | 37.93565 | 23.95475 | 316 ft | 144 kts | 36° |
| 2026-05-06 08:16 | 37.94459 | 23.96334 | 598 ft | 169 kts | 37° |
| 2026-05-06 08:17 | 37.95397 | 23.97227 | 1378 ft | 168 kts | 36° |
| 2026-05-06 08:17 | 37.96346 | 23.98132 | 2084 ft | 173 kts | 37° |
| 2026-05-06 08:17 | 37.97348 | 23.99092 | 2540 ft | 195 kts | 36° |
| 2026-05-06 08:17 | 37.98503 | 24.00201 | 2857 ft | 221 kts | 36° |
| 2026-05-06 08:18 | 37.99797 | 24.01445 | 3177 ft | 244 kts | 36° |
| 2026-05-06 08:18 | 38.01185 | 24.02780 | 3819 ft | 254 kts | 36° |
| 2026-05-06 08:18 | 38.02588 | 24.04133 | 4784 ft | 253 kts | 36° |
| 2026-05-06 08:18 | 38.04002 | 24.05494 | 5674 ft | 255 kts | 36° |
| 2026-05-06 08:19 | 38.05573 | 24.06594 | 6363 ft | 265 kts | 16° |
| 2026-05-06 08:19 | 38.07419 | 24.06890 | 7071 ft | 272 kts | 359° |
| 2026-05-06 08:19 | 38.09310 | 24.06625 | 7909 ft | 275 kts | 352° |
| 2026-05-06 08:19 | 38.11214 | 24.06299 | 8744 ft | 277 kts | 352° |
| 2026-05-06 08:20 | 38.13135 | 24.05960 | 9578 ft | 279 kts | 352° |
| 2026-05-06 08:20 | 38.15044 | 24.05623 | 10408 ft | 281 kts | 352° |
| 2026-05-06 08:20 | 38.17002 | 24.05277 | 11130 ft | 288 kts | 352° |
| 2026-05-06 08:20 | 38.19043 | 24.04917 | 11553 ft | 305 kts | 352° |
| 2026-05-06 08:21 | 38.21211 | 24.04533 | 11868 ft | 324 kts | 352° |
| 2026-05-06 08:21 | 38.23512 | 24.04126 | 12154 ft | 342 kts | 352° |
| 2026-05-06 08:21 | 38.25921 | 24.03700 | 12660 ft | 352 kts | 352° |
| 2026-05-06 08:21 | 38.28361 | 24.03268 | 13376 ft | 355 kts | 352° |
| 2026-05-06 08:22 | 38.30816 | 24.02833 | 14114 ft | 357 kts | 351° |
| 2026-05-06 08:22 | 38.33285 | 24.02395 | 14837 ft | 360 kts | 351° |
| 2026-05-06 08:22 | 38.35746 | 24.01958 | 15536 ft | 362 kts | 351° |
| 2026-05-06 08:22 | 38.38252 | 24.01513 | 16207 ft | 365 kts | 351° |
| 2026-05-06 08:23 | 38.40777 | 24.01064 | 16841 ft | 368 kts | 350° |
| 2026-05-06 08:23 | 38.43325 | 24.00615 | 17470 ft | 370 kts | 350° |
| 2026-05-06 08:23 | 38.45886 | 24.00164 | 18094 ft | 373 kts | 350° |
| 2026-05-06 08:23 | 38.48474 | 23.99706 | 18681 ft | 376 kts | 349° |
| 2026-05-06 08:24 | 38.51082 | 23.99244 | 19233 ft | 379 kts | 349° |
| 2026-05-06 08:24 | 38.53675 | 23.98783 | 19807 ft | 382 kts | 349° |
| 2026-05-06 08:24 | 38.56319 | 23.98313 | 20366 ft | 384 kts | 349° |
| 2026-05-06 08:24 | 38.58984 | 23.97839 | 20908 ft | 387 kts | 349° |
| 2026-05-06 08:25 | 38.61670 | 23.97360 | 21403 ft | 390 kts | 349° |
| 2026-05-06 08:25 | 38.64374 | 23.96879 | 21894 ft | 393 kts | 349° |
| 2026-05-06 08:25 | 38.67086 | 23.96394 | 22390 ft | 395 kts | 349° |
| 2026-05-06 08:25 | 38.69816 | 23.95907 | 22868 ft | 397 kts | 349° |
| 2026-05-06 08:26 | 38.72561 | 23.95416 | 23320 ft | 400 kts | 349° |
| 2026-05-06 08:26 | 38.75323 | 23.94922 | 23769 ft | 402 kts | 349° |
| 2026-05-06 08:26 | 38.78100 | 23.94424 | 24192 ft | 404 kts | 349° |
| 2026-05-06 08:26 | 38.80891 | 23.93924 | 24621 ft | 406 kts | 349° |
| 2026-05-06 08:27 | 38.83699 | 23.93420 | 25058 ft | 408 kts | 349° |
| 2026-05-06 08:27 | 38.86518 | 23.92914 | 25482 ft | 409 kts | 348° |
| 2026-05-06 08:27 | 38.89345 | 23.92406 | 25874 ft | 411 kts | 348° |
| 2026-05-06 08:27 | 38.92188 | 23.91895 | 26251 ft | 413 kts | 348° |
| 2026-05-06 08:28 | 38.95045 | 23.91381 | 26602 ft | 416 kts | 348° |
| 2026-05-06 08:28 | 38.97882 | 23.90870 | 26961 ft | 417 kts | 348° |
| 2026-05-06 08:28 | 39.00766 | 23.90350 | 27294 ft | 420 kts | 348° |
| 2026-05-06 08:28 | 39.03664 | 23.89827 | 27652 ft | 421 kts | 348° |
| 2026-05-06 08:29 | 39.06568 | 23.89303 | 27987 ft | 422 kts | 348° |
| 2026-05-06 08:29 | 39.09490 | 23.88775 | 28291 ft | 425 kts | 348° |
| 2026-05-06 08:29 | 39.12434 | 23.88242 | 28575 ft | 427 kts | 348° |
| 2026-05-06 08:29 | 39.15378 | 23.87709 | 28918 ft | 427 kts | 348° |
| 2026-05-06 08:30 | 39.18319 | 23.87177 | 29357 ft | 425 kts | 348° |
| 2026-05-06 08:30 | 39.21240 | 23.86647 | 29823 ft | 423 kts | 348° |
| 2026-05-06 08:30 | 39.24150 | 23.86119 | 30206 ft | 422 kts | 348° |
| 2026-05-06 08:30 | 39.27059 | 23.85591 | 30586 ft | 421 kts | 348° |
| 2026-05-06 08:31 | 39.29955 | 23.85064 | 30980 ft | 420 kts | 348° |
| 2026-05-06 08:31 | 39.32840 | 23.84539 | 31384 ft | 418 kts | 348° |
| 2026-05-06 08:31 | 39.35676 | 23.84023 | 31762 ft | 416 kts | 348° |
| 2026-05-06 08:31 | 39.38543 | 23.83500 | 32135 ft | 415 kts | 348° |
| 2026-05-06 08:32 | 39.41401 | 23.82979 | 32505 ft | 413 kts | 348° |
| 2026-05-06 08:32 | 39.44235 | 23.82462 | 32930 ft | 410 kts | 348° |
| 2026-05-06 08:32 | 39.47059 | 23.81946 | 33272 ft | 409 kts | 348° |
| 2026-05-06 08:32 | 39.49874 | 23.81431 | 33637 ft | 407 kts | 348° |
| 2026-05-06 08:33 | 39.52670 | 23.80920 | 33989 ft | 406 kts | 348° |
| 2026-05-06 08:33 | 39.55490 | 23.80403 | 34046 ft | 409 kts | 348° |
| 2026-05-06 08:33 | 39.61125 | 23.79370 | 34061 ft | 408 kts | 348° |
| 2026-05-06 08:34 | 39.69467 | 23.77838 | 34066 ft | 405 kts | 348° |
| 2026-05-06 08:35 | 39.75053 | 23.76809 | 34067 ft | 405 kts | 348° |
| 2026-05-06 08:35 | 39.80638 | 23.75779 | 34068 ft | 405 kts | 348° |
| 2026-05-06 08:36 | 39.86191 | 23.74754 | 34070 ft | 405 kts | 348° |
| 2026-05-06 08:36 | 39.91766 | 23.73722 | 34071 ft | 405 kts | 348° |
| 2026-05-06 08:37 | 39.97341 | 23.72689 | 34072 ft | 405 kts | 348° |
| 2026-05-06 08:37 | 40.02920 | 23.71654 | 34074 ft | 405 kts | 348° |
| 2026-05-06 08:38 | 40.08510 | 23.70614 | 34075 ft | 406 kts | 348° |
| 2026-05-06 08:38 | 40.14106 | 23.69572 | 34076 ft | 406 kts | 348° |
| 2026-05-06 08:39 | 40.18755 | 23.68705 | 34077 ft | 406 kts | 348° |
| 2026-05-06 08:39 | 40.24350 | 23.67660 | 34077 ft | 406 kts | 348° |
| 2026-05-06 08:40 | 40.29948 | 23.66612 | 34078 ft | 406 kts | 348° |
| 2026-05-06 08:40 | 40.35508 | 23.65570 | 34079 ft | 407 kts | 348° |
| 2026-05-06 08:41 | 40.41115 | 23.64518 | 34079 ft | 407 kts | 348° |
| 2026-05-06 08:41 | 40.46721 | 23.63463 | 34079 ft | 407 kts | 348° |
| 2026-05-06 08:42 | 40.52332 | 23.62407 | 34080 ft | 407 kts | 348° |
| 2026-05-06 08:42 | 40.57941 | 23.61348 | 34083 ft | 407 kts | 348° |
| 2026-05-06 08:43 | 40.63527 | 23.60292 | 34084 ft | 408 kts | 348° |
| 2026-05-06 08:43 | 40.69158 | 23.59226 | 34084 ft | 408 kts | 348° |
| 2026-05-06 08:44 | 40.74799 | 23.58156 | 34084 ft | 409 kts | 348° |
| 2026-05-06 08:44 | 40.80438 | 23.57085 | 34084 ft | 410 kts | 348° |
| 2026-05-06 08:45 | 40.86048 | 23.56017 | 34084 ft | 410 kts | 348° |
| 2026-05-06 08:45 | 40.91709 | 23.54938 | 34083 ft | 411 kts | 348° |
| 2026-05-06 08:46 | 40.97371 | 23.53857 | 34082 ft | 411 kts | 348° |
| 2026-05-06 08:46 | 41.03038 | 23.52773 | 34083 ft | 412 kts | 348° |
| 2026-05-06 08:47 | 41.08714 | 23.51687 | 34082 ft | 412 kts | 349° |
| 2026-05-06 08:47 | 41.14401 | 23.50602 | 34083 ft | 413 kts | 349° |
| 2026-05-06 08:48 | 41.20096 | 23.49507 | 34083 ft | 413 kts | 349° |
| 2026-05-06 08:48 | 41.25793 | 23.48407 | 34083 ft | 414 kts | 349° |
| 2026-05-06 08:49 | 41.31467 | 23.47310 | 34083 ft | 414 kts | 349° |
| 2026-05-06 08:49 | 41.37179 | 23.46205 | 34016 ft | 411 kts | 349° |
| 2026-05-06 08:49 | 41.39999 | 23.45672 | 33502 ft | 408 kts | 350° |
| 2026-05-06 08:50 | 41.42843 | 23.45347 | 32871 ft | 409 kts | 353° |
| 2026-05-06 08:50 | 41.45648 | 23.45183 | 32342 ft | 407 kts | 355° |
| 2026-05-06 08:50 | 41.48453 | 23.45086 | 31759 ft | 397 kts | 355° |
| 2026-05-06 08:50 | 41.51231 | 23.44980 | 30935 ft | 401 kts | 355° |
| 2026-05-06 08:51 | 41.54014 | 23.44861 | 30553 ft | 395 kts | 355° |
| 2026-05-06 08:51 | 41.56728 | 23.44736 | 30417 ft | 386 kts | 355° |
| 2026-05-06 08:51 | 41.59383 | 23.44609 | 30160 ft | 378 kts | 355° |
| 2026-05-06 08:51 | 41.62004 | 23.44480 | 29752 ft | 375 kts | 355° |
| 2026-05-06 08:52 | 41.64606 | 23.44351 | 29326 ft | 371 kts | 355° |
| 2026-05-06 08:52 | 41.67163 | 23.44222 | 28583 ft | 363 kts | 355° |
| 2026-05-06 08:52 | 41.69685 | 23.44093 | 27766 ft | 372 kts | 355° |
| 2026-05-06 08:52 | 41.72263 | 23.43962 | 27387 ft | 368 kts | 355° |
| 2026-05-06 08:53 | 41.74807 | 23.43832 | 27057 ft | 364 kts | 355° |
| 2026-05-06 08:53 | 41.77327 | 23.43704 | 26644 ft | 361 kts | 355° |
| 2026-05-06 08:53 | 41.79837 | 23.43576 | 26203 ft | 360 kts | 355° |
| 2026-05-06 08:53 | 41.82339 | 23.43447 | 25787 ft | 358 kts | 355° |
| 2026-05-06 08:54 | 41.84831 | 23.43319 | 25357 ft | 357 kts | 355° |
| 2026-05-06 08:54 | 41.87312 | 23.43192 | 24944 ft | 355 kts | 355° |
| 2026-05-06 08:54 | 41.89781 | 23.43064 | 24518 ft | 354 kts | 355° |
| 2026-05-06 08:54 | 41.92202 | 23.42939 | 24111 ft | 352 kts | 355° |
| 2026-05-06 08:55 | 41.94649 | 23.42813 | 23693 ft | 350 kts | 355° |
| 2026-05-06 08:55 | 41.97083 | 23.42687 | 23284 ft | 349 kts | 355° |
| 2026-05-06 08:55 | 41.99512 | 23.42562 | 22884 ft | 347 kts | 355° |
| 2026-05-06 08:55 | 42.01913 | 23.42438 | 22477 ft | 345 kts | 356° |
| 2026-05-06 08:56 | 42.04318 | 23.42314 | 22040 ft | 344 kts | 356° |
| 2026-05-06 08:56 | 42.06703 | 23.42190 | 21647 ft | 343 kts | 356° |
| 2026-05-06 08:56 | 42.09080 | 23.42066 | 21255 ft | 341 kts | 356° |
| 2026-05-06 08:56 | 42.11443 | 23.41943 | 20871 ft | 339 kts | 356° |
| 2026-05-06 08:57 | 42.13795 | 23.41821 | 20473 ft | 338 kts | 356° |
| 2026-05-06 08:57 | 42.16104 | 23.41700 | 20087 ft | 336 kts | 356° |
| 2026-05-06 08:57 | 42.18441 | 23.41578 | 19684 ft | 335 kts | 356° |
| 2026-05-06 08:57 | 42.20770 | 23.41457 | 19293 ft | 334 kts | 356° |
| 2026-05-06 08:58 | 42.23084 | 23.41336 | 18911 ft | 332 kts | 356° |
| 2026-05-06 08:58 | 42.25391 | 23.41215 | 18525 ft | 331 kts | 356° |
| 2026-05-06 08:58 | 42.27691 | 23.41129 | 18155 ft | 330 kts | 0° |
| 2026-05-06 08:58 | 42.29972 | 23.41399 | 17769 ft | 329 kts | 8° |
| 2026-05-06 08:59 | 42.32206 | 23.42050 | 17410 ft | 328 kts | 13° |
| 2026-05-06 08:59 | 42.34395 | 23.42914 | 17034 ft | 327 kts | 16° |
| 2026-05-06 08:59 | 42.36565 | 23.43839 | 16680 ft | 325 kts | 16° |
| 2026-05-06 08:59 | 42.38729 | 23.44736 | 16306 ft | 324 kts | 15° |
| 2026-05-06 09:00 | 42.40861 | 23.45609 | 15964 ft | 322 kts | 15° |
| 2026-05-06 09:00 | 42.43001 | 23.46482 | 15592 ft | 321 kts | 15° |
| 2026-05-06 09:00 | 42.45135 | 23.47355 | 15246 ft | 319 kts | 16° |
| 2026-05-06 09:00 | 42.47260 | 23.48215 | 14883 ft | 318 kts | 15° |
| 2026-05-06 09:01 | 42.49380 | 23.49073 | 14515 ft | 317 kts | 16° |
| 2026-05-06 09:01 | 42.51496 | 23.49932 | 14161 ft | 316 kts | 16° |
| 2026-05-06 09:01 | 42.53575 | 23.50778 | 13819 ft | 314 kts | 16° |
| 2026-05-06 09:01 | 42.55662 | 23.51627 | 13460 ft | 313 kts | 16° |
| 2026-05-06 09:02 | 42.57711 | 23.52624 | 13108 ft | 312 kts | 27° |
| 2026-05-06 09:02 | 42.59408 | 23.54446 | 12729 ft | 313 kts | 49° |
| 2026-05-06 09:02 | 42.60476 | 23.57001 | 12389 ft | 312 kts | 70° |
| 2026-05-06 09:02 | 42.60781 | 23.59906 | 12043 ft | 312 kts | 90° |
| 2026-05-06 09:03 | 42.60497 | 23.62828 | 11705 ft | 312 kts | 102° |
| 2026-05-06 09:03 | 42.59974 | 23.65643 | 11355 ft | 311 kts | 101° |
| 2026-05-06 09:03 | 42.59629 | 23.68543 | 10996 ft | 310 kts | 96° |
| 2026-05-06 09:03 | 42.59422 | 23.71447 | 10641 ft | 309 kts | 94° |
| 2026-05-06 09:04 | 42.59260 | 23.74358 | 10292 ft | 308 kts | 94° |
| 2026-05-06 09:04 | 42.59099 | 23.77257 | 9934 ft | 308 kts | 94° |
| 2026-05-06 09:04 | 42.58914 | 23.80147 | 9603 ft | 306 kts | 95° |
| 2026-05-06 09:04 | 42.58729 | 23.83022 | 9237 ft | 306 kts | 95° |
| 2026-05-06 09:05 | 42.58546 | 23.85861 | 8893 ft | 305 kts | 95° |
| 2026-05-06 09:05 | 42.58362 | 23.88717 | 8568 ft | 303 kts | 95° |
| 2026-05-06 09:05 | 42.58284 | 23.91561 | 8225 ft | 302 kts | 84° |
| 2026-05-06 09:05 | 42.58886 | 23.94286 | 7875 ft | 300 kts | 62° |
| 2026-05-06 09:06 | 42.60203 | 23.96453 | 7527 ft | 298 kts | 39° |
| 2026-05-06 09:06 | 42.62021 | 23.97748 | 7175 ft | 296 kts | 16° |
| 2026-05-06 09:06 | 42.64025 | 23.97984 | 6821 ft | 294 kts | 353° |
| 2026-05-06 09:06 | 42.65959 | 23.97113 | 6550 ft | 287 kts | 328° |
| 2026-05-06 09:07 | 42.67348 | 23.95383 | 6467 ft | 263 kts | 304° |
| 2026-05-06 09:07 | 42.67991 | 23.93190 | 6442 ft | 243 kts | 277° |
| 2026-05-06 09:07 | 42.67852 | 23.90966 | 6466 ft | 234 kts | 254° |
| 2026-05-06 09:07 | 42.67293 | 23.88939 | 6529 ft | 224 kts | 250° |
| 2026-05-06 09:08 | 42.66944 | 23.86905 | 6504 ft | 218 kts | 264° |
| 2026-05-06 09:08 | 42.66929 | 23.84886 | 6500 ft | 215 kts | 272° |
| 2026-05-06 09:08 | 42.67052 | 23.82876 | 6497 ft | 212 kts | 275° |
| 2026-05-06 09:08 | 42.67197 | 23.80881 | 6411 ft | 214 kts | 275° |
| 2026-05-06 09:09 | 42.67346 | 23.78835 | 6140 ft | 218 kts | 275° |
| 2026-05-06 09:09 | 42.67492 | 23.76807 | 5997 ft | 214 kts | 274° |
| 2026-05-06 09:09 | 42.67605 | 23.74832 | 6001 ft | 207 kts | 271° |
| 2026-05-06 09:09 | 42.67624 | 23.72916 | 5973 ft | 204 kts | 271° |
| 2026-05-06 09:10 | 42.67684 | 23.70982 | 5811 ft | 208 kts | 272° |
| 2026-05-06 09:10 | 42.67779 | 23.69018 | 5535 ft | 208 kts | 273° |
| 2026-05-06 09:10 | 42.67890 | 23.67079 | 5256 ft | 204 kts | 274° |
| 2026-05-06 09:10 | 42.68005 | 23.65182 | 4986 ft | 199 kts | 274° |
| 2026-05-06 09:11 | 42.68122 | 23.63339 | 4724 ft | 193 kts | 274° |
| 2026-05-06 09:11 | 42.68236 | 23.61546 | 4470 ft | 188 kts | 274° |
| 2026-05-06 09:11 | 42.68349 | 23.59796 | 4224 ft | 183 kts | 274° |
| 2026-05-06 09:11 | 42.68458 | 23.58107 | 3993 ft | 175 kts | 274° |
| 2026-05-06 09:12 | 42.68563 | 23.56474 | 3759 ft | 172 kts | 274° |
| 2026-05-06 09:12 | 42.68666 | 23.54882 | 3547 ft | 166 kts | 274° |
| 2026-05-06 09:12 | 42.68764 | 23.53376 | 3343 ft | 157 kts | 274° |
| 2026-05-06 09:12 | 42.68857 | 23.51931 | 3124 ft | 152 kts | 274° |
| 2026-05-06 09:13 | 42.68949 | 23.50506 | 2919 ft | 152 kts | 274° |
| 2026-05-06 09:13 | 42.69042 | 23.49074 | 2719 ft | 152 kts | 274° |
| 2026-05-06 09:13 | 42.69132 | 23.47644 | 2503 ft | 152 kts | 274° |
| 2026-05-06 09:13 | 42.69225 | 23.46217 | 2302 ft | 151 kts | 275° |
| 2026-05-06 09:14 | 42.69329 | 23.44798 | 2093 ft | 151 kts | 275° |
| 2026-05-06 09:14 | 42.69409 | 23.43374 | 1919 ft | 151 kts | 275° |
| 2026-05-06 09:14 | 42.69503 | 23.41959 | 1759 ft | 149 kts | 275° |
| 2026-05-06 09:14 | 42.69580 | 23.40768 | 1750 ft | 93 kts | 275° |
| 2026-05-06 09:15 | 42.69619 | 23.40190 | 1750 ft | 33 kts | 275° |
| 2026-05-06 09:15 | 42.69630 | 23.40010 | 1750 ft | 17 kts | 275° |
| 2026-05-06 09:15 | 42.69640 | 23.39857 | 1750 ft | 16 kts | 275° |
| 2026-05-06 09:15 | 42.69649 | 23.39713 | 1750 ft | 15 kts | 275° |
| 2026-05-06 09:16 | 42.69659 | 23.39578 | 1750 ft | 14 kts | 275° |
| 2026-05-06 09:16 | 42.69601 | 23.39514 | 1750 ft | 13 kts | 181° |
| 2026-05-06 09:16 | 42.69510 | 23.39512 | 1750 ft | 13 kts | 181° |
| 2026-05-06 09:16 | 42.69427 | 23.39540 | 1750 ft | 12 kts | 163° |
| 2026-05-06 09:17 | 42.69361 | 23.39600 | 1750 ft | 12 kts | 114° |
| 2026-05-06 09:17 | 42.69329 | 23.39700 | 1750 ft | 11 kts | 114° |
| 2026-05-06 09:17 | 42.69299 | 23.39796 | 1750 ft | 11 kts | 114° |
| 2026-05-06 09:17 | 42.69269 | 23.39888 | 1750 ft | 10 kts | 114° |
| 2026-05-06 09:18 | 42.69241 | 23.39975 | 1750 ft | 10 kts | 114° |
| 2026-05-06 09:18 | 42.69214 | 23.40060 | 1750 ft | 10 kts | 114° |
| 2026-05-06 09:18 | 42.69188 | 23.40141 | 1750 ft | 9 kts | 114° |
| 2026-05-06 09:18 | 42.69150 | 23.40200 | 1750 ft | 9 kts | 173° |
| 2026-05-06 09:19 | 42.69092 | 23.40210 | 1750 ft | 2 kts | 194° |